AUA7S LQSA-LOWW
Flight info
| Callsign | AUA7S |
|---|---|
| Flight time | 0h 49m |
| Altitude | 34000 |
| Route | BOSNA DCT OBUTI OBUTI2W |
| Aircraft | A321/M-SDE2E3FGHIJ1RWXY/LB1 |
Departure
| Time | 2026-04-22 18:13 |
|---|---|
| Airport | Sarajevo International Airport (LQSA) |
Arrival
| Time | 2026-04-22 19:02 |
|---|---|
| Airport | Vienna International Airport (LOWW) |
| Time | Latitude | Longitude | Altitude | Speed | Heading |
|---|---|---|---|---|---|
| 2026-04-22 17:51 | 43.82539 | 18.33623 | 1691 ft | 0 kts | 27° |
| 2026-04-22 18:01 | 43.82521 | 18.33609 | 1692 ft | 4 kts | 32° |
| 2026-04-22 18:01 | 43.82499 | 18.33587 | 1694 ft | 4 kts | 47° |
| 2026-04-22 18:02 | 43.82487 | 18.33558 | 1693 ft | 4 kts | 89° |
| 2026-04-22 18:02 | 43.82489 | 18.33543 | 1693 ft | 1 kts | 117° |
| 2026-04-22 18:06 | 43.82487 | 18.33548 | 1694 ft | 2 kts | 117° |
| 2026-04-22 18:06 | 43.82473 | 18.33586 | 1694 ft | 7 kts | 117° |
| 2026-04-22 18:07 | 43.82454 | 18.33637 | 1692 ft | 11 kts | 117° |
| 2026-04-22 18:07 | 43.82393 | 18.33798 | 1693 ft | 17 kts | 117° |
| 2026-04-22 18:07 | 43.82342 | 18.33939 | 1698 ft | 16 kts | 117° |
| 2026-04-22 18:07 | 43.82291 | 18.34074 | 1705 ft | 15 kts | 117° |
| 2026-04-22 18:08 | 43.82247 | 18.34189 | 1708 ft | 6 kts | 117° |
| 2026-04-22 18:08 | 43.82218 | 18.34267 | 1710 ft | 12 kts | 118° |
| 2026-04-22 18:08 | 43.82180 | 18.34368 | 1712 ft | 10 kts | 117° |
| 2026-04-22 18:08 | 43.82149 | 18.34453 | 1715 ft | 12 kts | 117° |
| 2026-04-22 18:09 | 43.82119 | 18.34534 | 1717 ft | 7 kts | 117° |
| 2026-04-22 18:09 | 43.82072 | 18.34608 | 1719 ft | 13 kts | 149° |
| 2026-04-22 18:09 | 43.81985 | 18.34614 | 1721 ft | 11 kts | 203° |
| 2026-04-22 18:09 | 43.81937 | 18.34580 | 1721 ft | 5 kts | 216° |
| 2026-04-22 18:10 | 43.81943 | 18.34524 | 1720 ft | 7 kts | 296° |
| 2026-04-22 18:10 | 43.81947 | 18.34514 | 1720 ft | 0 kts | 296° |
| 2026-04-22 18:12 | 43.81952 | 18.34499 | 1719 ft | 10 kts | 297° |
| 2026-04-22 18:12 | 43.82109 | 18.34061 | 1711 ft | 89 kts | 295° |
| 2026-04-22 18:12 | 43.82349 | 18.33440 | 1699 ft | 131 kts | 297° |
| 2026-04-22 18:12 | 43.82993 | 18.31727 | 2263 ft | 154 kts | 299° |
| 2026-04-22 18:13 | 43.83705 | 18.30622 | 2876 ft | 157 kts | 334° |
| 2026-04-22 18:13 | 43.84762 | 18.30154 | 3202 ft | 166 kts | 347° |
| 2026-04-22 18:13 | 43.85915 | 18.29703 | 3499 ft | 179 kts | 344° |
| 2026-04-22 18:13 | 43.87144 | 18.29173 | 3797 ft | 191 kts | 341° |
| 2026-04-22 18:14 | 43.88457 | 18.28611 | 4141 ft | 204 kts | 341° |
| 2026-04-22 18:14 | 43.89854 | 18.28022 | 4537 ft | 219 kts | 343° |
| 2026-04-22 18:14 | 43.91344 | 18.27382 | 5090 ft | 232 kts | 346° |
| 2026-04-22 18:14 | 43.92901 | 18.26715 | 5709 ft | 237 kts | 346° |
| 2026-04-22 18:15 | 43.94494 | 18.26040 | 6414 ft | 241 kts | 347° |
| 2026-04-22 18:15 | 43.96142 | 18.25570 | 7048 ft | 245 kts | 356° |
| 2026-04-22 18:15 | 43.97880 | 18.25320 | 7532 ft | 258 kts | 353° |
| 2026-04-22 18:15 | 43.99582 | 18.24371 | 8074 ft | 272 kts | 328° |
| 2026-04-22 18:16 | 44.01030 | 18.22642 | 8777 ft | 276 kts | 319° |
| 2026-04-22 18:16 | 44.02422 | 18.20788 | 9514 ft | 278 kts | 319° |
| 2026-04-22 18:16 | 44.03827 | 18.18926 | 10201 ft | 282 kts | 319° |
| 2026-04-22 18:16 | 44.05297 | 18.17006 | 10525 ft | 298 kts | 320° |
| 2026-04-22 18:17 | 44.06853 | 18.14988 | 10795 ft | 314 kts | 319° |
| 2026-04-22 18:17 | 44.08490 | 18.12877 | 11107 ft | 328 kts | 319° |
| 2026-04-22 18:17 | 44.10199 | 18.10678 | 11409 ft | 342 kts | 319° |
| 2026-04-22 18:17 | 44.11984 | 18.08385 | 11646 ft | 356 kts | 319° |
| 2026-04-22 18:18 | 44.13839 | 18.05997 | 11851 ft | 370 kts | 319° |
| 2026-04-22 18:18 | 44.15763 | 18.03520 | 12065 ft | 382 kts | 319° |
| 2026-04-22 18:18 | 44.17731 | 18.00989 | 12467 ft | 387 kts | 319° |
| 2026-04-22 18:18 | 44.19709 | 17.98433 | 12983 ft | 389 kts | 319° |
| 2026-04-22 18:19 | 44.21696 | 17.95860 | 13482 ft | 391 kts | 319° |
| 2026-04-22 18:19 | 44.23700 | 17.93280 | 13977 ft | 393 kts | 319° |
| 2026-04-22 18:19 | 44.25710 | 17.90686 | 14399 ft | 395 kts | 319° |
| 2026-04-22 18:19 | 44.27728 | 17.88072 | 14831 ft | 397 kts | 319° |
| 2026-04-22 18:20 | 44.29757 | 17.85445 | 15252 ft | 399 kts | 319° |
| 2026-04-22 18:20 | 44.31800 | 17.82799 | 15677 ft | 402 kts | 319° |
| 2026-04-22 18:20 | 44.33851 | 17.80130 | 16095 ft | 404 kts | 319° |
| 2026-04-22 18:20 | 44.35924 | 17.77456 | 16516 ft | 406 kts | 321° |
| 2026-04-22 18:21 | 44.38204 | 17.75156 | 16936 ft | 405 kts | 332° |
| 2026-04-22 18:21 | 44.40691 | 17.73302 | 17334 ft | 407 kts | 335° |
| 2026-04-22 18:21 | 44.43219 | 17.71500 | 17736 ft | 409 kts | 335° |
| 2026-04-22 18:21 | 44.45765 | 17.69698 | 18149 ft | 411 kts | 335° |
| 2026-04-22 18:22 | 44.48320 | 17.67881 | 18541 ft | 413 kts | 335° |
| 2026-04-22 18:22 | 44.50017 | 17.66674 | 18756 ft | 414 kts | 335° |
| 2026-04-22 18:22 | 44.52591 | 17.64838 | 19091 ft | 416 kts | 335° |
| 2026-04-22 18:22 | 44.55175 | 17.62992 | 19449 ft | 416 kts | 335° |
| 2026-04-22 18:23 | 44.57746 | 17.61153 | 19906 ft | 414 kts | 335° |
| 2026-04-22 18:23 | 44.60307 | 17.59321 | 20371 ft | 412 kts | 335° |
| 2026-04-22 18:23 | 44.62861 | 17.57497 | 20837 ft | 411 kts | 335° |
| 2026-04-22 18:24 | 44.67950 | 17.53847 | 21691 ft | 411 kts | 335° |
| 2026-04-22 18:24 | 44.70492 | 17.52017 | 22092 ft | 411 kts | 335° |
| 2026-04-22 18:24 | 44.75600 | 17.48334 | 22771 ft | 415 kts | 335° |
| 2026-04-22 18:25 | 44.78177 | 17.46479 | 23068 ft | 417 kts | 335° |
| 2026-04-22 18:25 | 44.80765 | 17.44604 | 23358 ft | 420 kts | 334° |
| 2026-04-22 18:25 | 44.83367 | 17.42712 | 23654 ft | 422 kts | 335° |
| 2026-04-22 18:26 | 44.88605 | 17.38899 | 24151 ft | 426 kts | 334° |
| 2026-04-22 18:26 | 44.91245 | 17.36980 | 24381 ft | 427 kts | 334° |
| 2026-04-22 18:26 | 44.93895 | 17.35058 | 24624 ft | 429 kts | 334° |
| 2026-04-22 18:26 | 44.96518 | 17.33157 | 24866 ft | 430 kts | 334° |
| 2026-04-22 18:27 | 44.99184 | 17.31216 | 25114 ft | 432 kts | 334° |
| 2026-04-22 18:27 | 45.01855 | 17.29262 | 25349 ft | 433 kts | 334° |
| 2026-04-22 18:27 | 45.04536 | 17.27307 | 25598 ft | 434 kts | 334° |
| 2026-04-22 18:27 | 45.07221 | 17.25350 | 25867 ft | 434 kts | 334° |
| 2026-04-22 18:28 | 45.09908 | 17.23392 | 26157 ft | 434 kts | 334° |
| 2026-04-22 18:28 | 45.12587 | 17.21438 | 26461 ft | 433 kts | 334° |
| 2026-04-22 18:28 | 45.15267 | 17.19482 | 26775 ft | 433 kts | 334° |
| 2026-04-22 18:28 | 45.17936 | 17.17525 | 27090 ft | 432 kts | 334° |
| 2026-04-22 18:29 | 45.20602 | 17.15575 | 27373 ft | 431 kts | 334° |
| 2026-04-22 18:29 | 45.23257 | 17.13618 | 27711 ft | 430 kts | 334° |
| 2026-04-22 18:29 | 45.25907 | 17.11663 | 28045 ft | 428 kts | 334° |
| 2026-04-22 18:29 | 45.28542 | 17.09719 | 28435 ft | 426 kts | 334° |
| 2026-04-22 18:30 | 45.31166 | 17.07789 | 28826 ft | 423 kts | 334° |
| 2026-04-22 18:30 | 45.36352 | 17.03941 | 29602 ft | 418 kts | 334° |
| 2026-04-22 18:30 | 45.38925 | 17.02034 | 29985 ft | 416 kts | 334° |
| 2026-04-22 18:31 | 45.41488 | 17.00136 | 30353 ft | 414 kts | 334° |
| 2026-04-22 18:31 | 45.44040 | 16.98247 | 30661 ft | 412 kts | 334° |
| 2026-04-22 18:31 | 45.46579 | 16.96367 | 30939 ft | 411 kts | 334° |
| 2026-04-22 18:31 | 45.49113 | 16.94482 | 31159 ft | 411 kts | 334° |
| 2026-04-22 18:32 | 45.51647 | 16.92595 | 31384 ft | 411 kts | 334° |
| 2026-04-22 18:32 | 45.54183 | 16.90715 | 31608 ft | 411 kts | 334° |
| 2026-04-22 18:32 | 45.56723 | 16.88829 | 31831 ft | 411 kts | 334° |
| 2026-04-22 18:32 | 45.59258 | 16.86933 | 32026 ft | 412 kts | 334° |
| 2026-04-22 18:33 | 45.61800 | 16.85034 | 32193 ft | 414 kts | 334° |
| 2026-04-22 18:33 | 45.66956 | 16.81175 | 32254 ft | 424 kts | 333° |
| 2026-04-22 18:34 | 45.72245 | 16.77194 | 32225 ft | 434 kts | 333° |
| 2026-04-22 18:34 | 45.77614 | 16.73167 | 32213 ft | 436 kts | 334° |
| 2026-04-22 18:35 | 45.82991 | 16.69138 | 32201 ft | 436 kts | 334° |
| 2026-04-22 18:35 | 45.88356 | 16.65101 | 32206 ft | 435 kts | 334° |
| 2026-04-22 18:36 | 45.93721 | 16.61055 | 32208 ft | 435 kts | 334° |
| 2026-04-22 18:36 | 45.99085 | 16.56995 | 32207 ft | 437 kts | 334° |
| 2026-04-22 18:37 | 46.04461 | 16.52921 | 32207 ft | 437 kts | 334° |
| 2026-04-22 18:37 | 46.07147 | 16.50876 | 32104 ft | 436 kts | 334° |
| 2026-04-22 18:37 | 46.09830 | 16.48837 | 31866 ft | 435 kts | 334° |
| 2026-04-22 18:37 | 46.12501 | 16.46805 | 31625 ft | 434 kts | 334° |
| 2026-04-22 18:38 | 46.15171 | 16.44772 | 31375 ft | 434 kts | 334° |
| 2026-04-22 18:38 | 46.17836 | 16.42730 | 31130 ft | 433 kts | 334° |
| 2026-04-22 18:38 | 46.20499 | 16.40692 | 30914 ft | 434 kts | 335° |
| 2026-04-22 18:39 | 46.25843 | 16.36608 | 30601 ft | 434 kts | 335° |
| 2026-04-22 18:39 | 46.28511 | 16.34559 | 30476 ft | 434 kts | 334° |
| 2026-04-22 18:39 | 46.31176 | 16.32498 | 30358 ft | 434 kts | 334° |
| 2026-04-22 18:39 | 46.33843 | 16.30446 | 30233 ft | 434 kts | 335° |
| 2026-04-22 18:40 | 46.39477 | 16.27579 | 30180 ft | 432 kts | 352° |
| 2026-04-22 18:40 | 46.45455 | 16.26207 | 29882 ft | 437 kts | 353° |
| 2026-04-22 18:41 | 46.48460 | 16.25503 | 29494 ft | 437 kts | 352° |
| 2026-04-22 18:41 | 46.51463 | 16.24781 | 29085 ft | 438 kts | 352° |
| 2026-04-22 18:41 | 46.54473 | 16.24048 | 28643 ft | 440 kts | 352° |
| 2026-04-22 18:41 | 46.57452 | 16.23320 | 28181 ft | 440 kts | 352° |
| 2026-04-22 18:42 | 46.60473 | 16.22582 | 27690 ft | 441 kts | 352° |
| 2026-04-22 18:42 | 46.63498 | 16.21843 | 27214 ft | 442 kts | 352° |
| 2026-04-22 18:42 | 46.66540 | 16.21096 | 26731 ft | 445 kts | 353° |
| 2026-04-22 18:42 | 46.69599 | 16.20345 | 26265 ft | 447 kts | 353° |
| 2026-04-22 18:43 | 46.72673 | 16.19585 | 25801 ft | 448 kts | 353° |
| 2026-04-22 18:43 | 46.75745 | 16.18832 | 25354 ft | 449 kts | 353° |
| 2026-04-22 18:43 | 46.78831 | 16.18074 | 24913 ft | 450 kts | 353° |
| 2026-04-22 18:43 | 46.81919 | 16.17315 | 24474 ft | 449 kts | 353° |
| 2026-04-22 18:44 | 46.84982 | 16.16559 | 24050 ft | 446 kts | 352° |
| 2026-04-22 18:44 | 46.88033 | 16.15801 | 23588 ft | 444 kts | 353° |
| 2026-04-22 18:44 | 46.91065 | 16.15048 | 23085 ft | 440 kts | 353° |
| 2026-04-22 18:44 | 46.94090 | 16.14681 | 22604 ft | 434 kts | 4° |
| 2026-04-22 18:45 | 46.97058 | 16.15300 | 22181 ft | 429 kts | 12° |
| 2026-04-22 18:45 | 46.99978 | 16.16165 | 21684 ft | 428 kts | 13° |
| 2026-04-22 18:45 | 47.02887 | 16.17034 | 21073 ft | 425 kts | 12° |
| 2026-04-22 18:45 | 47.05771 | 16.17875 | 20440 ft | 419 kts | 12° |
| 2026-04-22 18:46 | 47.08598 | 16.18682 | 19885 ft | 409 kts | 12° |
| 2026-04-22 18:46 | 47.11359 | 16.19486 | 19412 ft | 398 kts | 12° |
| 2026-04-22 18:46 | 47.14038 | 16.20270 | 19009 ft | 387 kts | 12° |
| 2026-04-22 18:46 | 47.16637 | 16.21021 | 18631 ft | 375 kts | 12° |
| 2026-04-22 18:47 | 47.19167 | 16.21750 | 18220 ft | 365 kts | 12° |
| 2026-04-22 18:47 | 47.21630 | 16.22461 | 17749 ft | 356 kts | 12° |
| 2026-04-22 18:47 | 47.24040 | 16.23158 | 17195 ft | 351 kts | 12° |
| 2026-04-22 18:47 | 47.26429 | 16.23848 | 16574 ft | 348 kts | 12° |
| 2026-04-22 18:48 | 47.28802 | 16.24534 | 15935 ft | 346 kts | 12° |
| 2026-04-22 18:48 | 47.31158 | 16.25219 | 15299 ft | 344 kts | 12° |
| 2026-04-22 18:48 | 47.33491 | 16.25896 | 14850 ft | 338 kts | 12° |
| 2026-04-22 18:48 | 47.35767 | 16.26555 | 14536 ft | 328 kts | 12° |
| 2026-04-22 18:49 | 47.37976 | 16.27194 | 14260 ft | 318 kts | 12° |
| 2026-04-22 18:49 | 47.40111 | 16.27813 | 14000 ft | 308 kts | 12° |
| 2026-04-22 18:49 | 47.42187 | 16.28417 | 13716 ft | 301 kts | 12° |
| 2026-04-22 18:49 | 47.44240 | 16.29014 | 13407 ft | 300 kts | 12° |
| 2026-04-22 18:50 | 47.46280 | 16.29608 | 12953 ft | 298 kts | 12° |
| 2026-04-22 18:50 | 47.48303 | 16.30198 | 12463 ft | 295 kts | 12° |
| 2026-04-22 18:50 | 47.50305 | 16.30784 | 12076 ft | 290 kts | 11° |
| 2026-04-22 18:50 | 47.52263 | 16.31356 | 11738 ft | 283 kts | 11° |
| 2026-04-22 18:51 | 47.54177 | 16.31916 | 11410 ft | 278 kts | 11° |
| 2026-04-22 18:51 | 47.56053 | 16.32465 | 11045 ft | 273 kts | 12° |
| 2026-04-22 18:51 | 47.57822 | 16.33393 | 10664 ft | 269 kts | 27° |
| 2026-04-22 18:51 | 47.59415 | 16.34824 | 10301 ft | 267 kts | 31° |
| 2026-04-22 18:52 | 47.60972 | 16.36298 | 9903 ft | 264 kts | 30° |
| 2026-04-22 18:52 | 47.62520 | 16.37752 | 9502 ft | 263 kts | 30° |
| 2026-04-22 18:52 | 47.64063 | 16.39191 | 9100 ft | 262 kts | 30° |
| 2026-04-22 18:52 | 47.65594 | 16.40619 | 8699 ft | 259 kts | 30° |
| 2026-04-22 18:53 | 47.67121 | 16.42035 | 8314 ft | 258 kts | 30° |
| 2026-04-22 18:53 | 47.68638 | 16.43444 | 7930 ft | 257 kts | 30° |
| 2026-04-22 18:53 | 47.70148 | 16.44844 | 7548 ft | 254 kts | 30° |
| 2026-04-22 18:53 | 47.71644 | 16.46230 | 7171 ft | 253 kts | 29° |
| 2026-04-22 18:54 | 47.73142 | 16.47615 | 6801 ft | 253 kts | 29° |
| 2026-04-22 18:54 | 47.74625 | 16.48990 | 6426 ft | 250 kts | 29° |
| 2026-04-22 18:54 | 47.76100 | 16.50356 | 6038 ft | 249 kts | 30° |
| 2026-04-22 18:54 | 47.77554 | 16.51706 | 5715 ft | 244 kts | 29° |
| 2026-04-22 18:55 | 47.78976 | 16.53031 | 5437 ft | 238 kts | 29° |
| 2026-04-22 18:55 | 47.80360 | 16.54325 | 5197 ft | 231 kts | 30° |
| 2026-04-22 18:55 | 47.81696 | 16.55581 | 5008 ft | 222 kts | 29° |
| 2026-04-22 18:55 | 47.82981 | 16.56770 | 4836 ft | 214 kts | 28° |
| 2026-04-22 18:56 | 47.84244 | 16.57932 | 4668 ft | 212 kts | 29° |
| 2026-04-22 18:56 | 47.85494 | 16.59098 | 4490 ft | 212 kts | 29° |
| 2026-04-22 18:56 | 47.86748 | 16.60257 | 4316 ft | 212 kts | 29° |
| 2026-04-22 18:56 | 47.87993 | 16.61423 | 4133 ft | 211 kts | 29° |
| 2026-04-22 18:57 | 47.89212 | 16.62574 | 3967 ft | 210 kts | 29° |
| 2026-04-22 18:57 | 47.90455 | 16.63718 | 3815 ft | 211 kts | 28° |
| 2026-04-22 18:57 | 47.91705 | 16.64851 | 3640 ft | 208 kts | 25° |
| 2026-04-22 18:57 | 47.93042 | 16.65485 | 3441 ft | 197 kts | 2° |
| 2026-04-22 18:58 | 47.94361 | 16.65300 | 3251 ft | 187 kts | 348° |
| 2026-04-22 18:58 | 47.95602 | 16.64743 | 3114 ft | 185 kts | 344° |
| 2026-04-22 18:58 | 47.96803 | 16.64224 | 2977 ft | 175 kts | 345° |
| 2026-04-22 18:58 | 47.97970 | 16.63728 | 2823 ft | 174 kts | 345° |
| 2026-04-22 18:59 | 47.99105 | 16.63249 | 2639 ft | 164 kts | 345° |
| 2026-04-22 18:59 | 48.00196 | 16.62789 | 2455 ft | 162 kts | 346° |
| 2026-04-22 18:59 | 48.01263 | 16.62339 | 2216 ft | 154 kts | 346° |
| 2026-04-22 18:59 | 48.02252 | 16.61922 | 1997 ft | 142 kts | 346° |
| 2026-04-22 19:00 | 48.03199 | 16.61523 | 1812 ft | 142 kts | 345° |
| 2026-04-22 19:00 | 48.04145 | 16.61124 | 1616 ft | 139 kts | 345° |
| 2026-04-22 19:00 | 48.05072 | 16.60732 | 1419 ft | 138 kts | 345° |
| 2026-04-22 19:00 | 48.05998 | 16.60340 | 1214 ft | 138 kts | 344° |
| 2026-04-22 19:01 | 48.06921 | 16.59951 | 1024 ft | 138 kts | 344° |
| 2026-04-22 19:01 | 48.07840 | 16.59563 | 835 ft | 138 kts | 342° |
| 2026-04-22 19:01 | 48.08757 | 16.59179 | 659 ft | 136 kts | 342° |
| 2026-04-22 19:01 | 48.09608 | 16.58817 | 615 ft | 110 kts | 344° |
| 2026-04-22 19:02 | 48.10179 | 16.58579 | 615 ft | 70 kts | 344° |
| 2026-04-22 19:02 | 48.10537 | 16.58424 | 626 ft | 36 kts | 342° |
| 2026-04-22 19:02 | 48.10733 | 16.58259 | 615 ft | 31 kts | 320° |
| 2026-04-22 19:02 | 48.10858 | 16.58086 | 615 ft | 16 kts | 315° |
| 2026-04-22 19:03 | 48.10953 | 16.57973 | 617 ft | 20 kts | 342° |
| 2026-04-22 19:03 | 48.11095 | 16.57910 | 617 ft | 23 kts | 343° |
| 2026-04-22 19:03 | 48.11258 | 16.57843 | 618 ft | 26 kts | 344° |
| 2026-04-22 19:03 | 48.11439 | 16.57766 | 617 ft | 28 kts | 345° |
| 2026-04-22 19:04 | 48.11617 | 16.57693 | 626 ft | 21 kts | 344° |
| 2026-04-22 19:04 | 48.11741 | 16.57639 | 621 ft | 11 kts | 343° |
| 2026-04-22 19:04 | 48.11757 | 16.57632 | 626 ft | 0 kts | 342° |
| 2026-04-22 19:07 | 48.11762 | 16.57630 | 625 ft | 3 kts | 343° |
| 2026-04-22 19:08 | 48.11780 | 16.57622 | 621 ft | 6 kts | 345° |
| 2026-04-22 19:08 | 48.11830 | 16.57558 | 617 ft | 14 kts | 280° |
| 2026-04-22 19:08 | 48.11810 | 16.57406 | 615 ft | 16 kts | 270° |
| 2026-04-22 19:08 | 48.11849 | 16.57243 | 619 ft | 18 kts | 306° |
| 2026-04-22 19:09 | 48.11941 | 16.57018 | 626 ft | 20 kts | 295° |
| 2026-04-22 19:09 | 48.11984 | 16.56887 | 624 ft | 20 kts | 296° |
| 2026-04-22 19:09 | 48.12016 | 16.56803 | 621 ft | 6 kts | 330° |
| 2026-04-22 19:09 | 48.12058 | 16.56820 | 615 ft | 0 kts | 25° |